Time;durP1;ratioP1;P1;durP2;ratioP2;P2;SDS_P1;SDS_P2;PMS_P1;PMS_P2;Temp;Humidity;BMP_temperature;BMP_pressure;BME280_temperature;BME280_humidity;BME280_pressure;Samples;Min_cycle;Max_cycle;Signal;HPM_P1;HPM_P2
2020/12/29 14:52:08;;;;;;;163.80;72.93;;;4.00;99.90;;;;;;5012035;28;20438;-93
2020/12/29 14:54:39;;;;;;;137.75;58.38;;;5.10;99.90;;;;;;5010367;28;20034;-93
2020/12/29 14:57:04;;;;;;;147.00;61.28;;;5.10;99.90;;;;;;5010339;28;20026;-93
2020/12/29 14:59:30;;;;;;;147.95;61.65;;;5.10;99.90;;;;;;5010813;28;20053;-93
2020/12/29 15:01:56;;;;;;;160.77;64.38;;;5.10;99.90;;;;;;5011751;28;20383;-94
2020/12/29 15:04:22;;;;;;;147.60;62.90;;;5.10;99.90;;;;;;5011961;28;20082;-94
2020/12/29 15:06:48;;;;;;;136.27;58.78;;;5.10;99.90;;;;;;5013345;28;20080;-94
2020/12/29 15:09:13;;;;;;;136.45;59.17;;;5.10;99.90;;;;;;5013366;28;20033;-94
2020/12/29 15:11:39;;;;;;;130.75;52.50;;;5.10;99.90;;;;;;5012685;28;20033;-92
2020/12/29 15:14:05;;;;;;;126.75;56.47;;;5.10;99.90;;;;;;5009878;28;20040;-93
2020/12/29 15:16:31;;;;;;;135.13;57.60;;;5.10;99.90;;;;;;5009714;28;20391;-94
2020/12/29 15:18:57;;;;;;;144.85;62.75;;;5.20;99.90;;;;;;5009646;28;20044;-94
2020/12/29 15:21:25;;;;;;;148.85;62.40;;;5.20;99.90;;;;;;5009504;28;20357;-93
2020/12/29 15:23:51;;;;;;;148.98;67.85;;;5.20;99.90;;;;;;5009502;28;20113;-94
2020/12/29 15:26:18;;;;;;;163.00;71.70;;;5.20;99.90;;;;;;5009869;28;20490;-94
2020/12/29 15:28:44;;;;;;;137.77;60.75;;;5.30;99.90;;;;;;5009664;28;20040;-93
2020/12/29 15:31:10;;;;;;;133.70;59.00;;;5.30;99.90;;;;;;5010522;28;20034;-94
2020/12/29 15:33:36;;;;;;;128.48;56.13;;;5.40;99.90;;;;;;5012447;28;20026;-92
2020/12/29 16:07:58;;;;;;;120.80;53.75;;;4.90;99.90;;;;;;5093082;27;20371;-95
2020/12/29 16:10:24;;;;;;;134.27;63.17;;;5.00;99.90;;;;;;5092138;28;20032;-96
2020/12/29 16:12:50;;;;;;;124.88;61.15;;;5.00;99.90;;;;;;5091192;28;20050;-95
2020/12/29 16:15:15;;;;;;;144.05;64.55;;;5.10;99.90;;;;;;5088273;28;20024;-95
2020/12/29 16:17:41;;;;;;;145.85;67.72;;;5.20;99.90;;;;;;5090346;28;20031;-96
2020/12/29 16:20:07;;;;;;;157.57;71.63;;;5.30;99.90;;;;;;5090606;28;20032;-95
2020/12/29 16:22:32;;;;;;;143.63;66.60;;;5.40;99.90;;;;;;5089945;28;20025;-94
2020/12/29 16:24:58;;;;;;;134.80;64.90;;;5.50;99.90;;;;;;5089904;28;20027;-94
2020/12/29 16:27:24;;;;;;;130.45;62.17;;;5.50;99.90;;;;;;5089689;28;20062;-95
2020/12/29 16:29:51;;;;;;;146.02;66.60;;;5.60;99.90;;;;;;5089660;28;20056;-94
2020/12/29 16:32:19;;;;;;;117.22;56.60;;;5.70;99.90;;;;;;5089669;28;20111;-94
2020/12/29 16:34:46;;;;;;;128.25;61.30;;;5.70;99.90;;;;;;5089825;28;20477;-94
2020/12/29 16:37:11;;;;;;;122.55;58.35;;;5.80;99.90;;;;;;5090497;28;20063;-95
2020/12/29 16:39:37;;;;;;;126.20;61.60;;;5.80;99.90;;;;;;5089992;28;20036;-93
2020/12/29 16:42:11;;;;;;;120.38;61.50;;;5.90;99.90;;;;;;5091799;28;20047;-95
2020/12/29 16:44:38;;;;;;;110.15;55.67;;;5.80;99.90;;;;;;5091465;28;20042;-96
2020/12/29 16:47:05;;;;;;;106.47;54.53;;;5.70;99.70;;;;;;5093355;28;20424;-94
2020/12/29 16:49:31;;;;;;;108.45;55.13;;;5.60;99.50;;;;;;5092230;28;20116;-96
2020/12/29 16:51:57;;;;;;;102.55;53.45;;;5.60;99.50;;;;;;5093403;28;20441;-96
2020/12/29 16:54:24;;;;;;;96.10;50.70;;;5.60;99.70;;;;;;5091036;28;20016;-96
2020/12/29 16:56:54;;;;;;;103.55;53.20;;;5.50;99.90;;;;;;5089577;28;20052;-96
2020/12/29 16:59:21;;;;;;;102.20;51.60;;;5.60;99.90;;;;;;5081712;28;20078;-95
2020/12/29 17:01:47;;;;;;;113.70;54.33;;;5.50;99.90;;;;;;5090443;28;20427;-96
2020/12/29 17:04:14;;;;;;;104.50;53.00;;;5.60;99.90;;;;;;5090516;28;20028;-96
2020/12/29 17:06:40;;;;;;;94.93;50.38;;;5.60;99.90;;;;;;5089397;28;20113;-96
2020/12/29 17:09:06;;;;;;;95.75;48.97;;;5.60;99.90;;;;;;5091120;28;20032;-94
2020/12/29 17:11:32;;;;;;;119.47;63.53;;;5.60;99.90;;;;;;5096270;28;20016;-95
2020/12/29 17:13:58;;;;;;;124.28;67.72;;;5.70;99.90;;;;;;5099700;28;20028;-96
2020/12/29 17:16:23;;;;;;;124.57;67.80;;;5.80;99.90;;;;;;5093382;28;20020;-95
2020/12/29 17:18:49;;;;;;;138.93;78.95;;;5.80;99.90;;;;;;5080735;28;20028;-95
2020/12/29 17:21:17;;;;;;;121.55;62.85;;;5.80;99.90;;;;;;5056068;28;20021;-95
2020/12/29 17:23:44;;;;;;;112.97;62.08;;;5.80;99.90;;;;;;5057044;28;20025;-95
2020/12/29 17:26:17;;;;;;;131.15;62.58;;;5.90;99.90;;;;;;5056539;28;20029;-96
2020/12/29 17:28:43;;;;;;;118.70;61.65;;;5.80;99.90;;;;;;5057859;28;20029;-96
2020/12/29 17:31:10;;;;;;;118.78;59.25;;;5.80;99.90;;;;;;5057421;28;20024;-95
2020/12/29 17:33:36;;;;;;;126.32;63.05;;;5.90;99.90;;;;;;5056032;28;20036;-95
2020/12/29 17:36:02;;;;;;;136.85;72.40;;;5.90;99.90;;;;;;5056827;28;20403;-96
2020/12/29 17:38:27;;;;;;;142.18;72.22;;;5.90;99.90;;;;;;5057941;28;20056;-96
2020/12/29 17:40:54;;;;;;;142.40;71.22;;;5.90;99.90;;;;;;5075483;28;20021;-94
2020/12/29 17:43:21;;;;;;;146.40;72.43;;;5.90;99.90;;;;;;5077113;28;20066;-95
2020/12/29 17:45:47;;;;;;;146.23;73.00;;;5.90;99.90;;;;;;5074786;28;20025;-95
2020/12/29 17:48:12;;;;;;;157.02;77.85;;;5.90;99.90;;;;;;5077689;28;20036;-96
2020/12/29 17:50:38;;;;;;;153.50;79.80;;;6.00;99.90;;;;;;5075326;28;20024;-96
2020/12/29 17:53:04;;;;;;;136.00;69.72;;;6.00;99.90;;;;;;5074800;28;20107;-94
2020/12/29 17:55:30;;;;;;;121.72;64.18;;;6.00;99.90;;;;;;5075722;28;20103;-95
2020/12/29 17:57:59;;;;;;;128.95;64.50;;;6.10;99.90;;;;;;5074404;28;20024;-94
2020/12/29 18:00:29;;;;;;;111.75;62.17;;;6.10;99.90;;;;;;5083265;28;20081;-95
2020/12/29 18:02:55;;;;;;;111.07;59.63;;;6.10;99.90;;;;;;5073211;28;20017;-95
2020/12/29 18:05:21;;;;;;;116.50;64.07;;;6.10;99.90;;;;;;5073512;28;20350;-95
2020/12/29 18:07:47;;;;;;;113.80;64.88;;;6.10;99.90;;;;;;5073811;28;20643;-93
2020/12/29 18:10:14;;;;;;;108.22;57.35;;;6.10;99.90;;;;;;5073073;28;20051;-93
2020/12/29 18:12:41;;;;;;;104.57;54.22;;;6.10;99.90;;;;;;5074956;28;20049;-94
2020/12/29 18:15:07;;;;;;;95.32;50.47;;;6.10;99.90;;;;;;5070753;28;20029;-94
2020/12/29 18:17:33;;;;;;;116.05;57.28;;;6.10;99.90;;;;;;5084793;28;20029;-93
2020/12/29 18:19:59;;;;;;;124.75;59.08;;;6.10;99.90;;;;;;5073549;28;20021;-95
2020/12/29 18:22:25;;;;;;;151.50;62.97;;;6.10;99.90;;;;;;5074014;28;20431;-94
2020/12/29 18:24:50;;;;;;;160.05;64.15;;;6.10;99.90;;;;;;5073953;28;20465;-94
2020/12/29 18:27:16;;;;;;;160.38;61.67;;;6.20;99.90;;;;;;5063129;28;20029;-93
2020/12/29 18:29:42;;;;;;;157.02;63.00;;;6.20;99.90;;;;;;5065699;28;20086;-94
2020/12/29 18:32:08;;;;;;;170.02;68.38;;;6.20;99.90;;;;;;5073685;28;20025;-94
2020/12/29 18:34:34;;;;;;;170.88;69.10;;;6.20;99.90;;;;;;5073766;28;20029;-94
2020/12/29 18:36:59;;;;;;;171.85;75.35;;;6.20;99.90;;;;;;5073077;28;20024;-93
2020/12/29 18:39:25;;;;;;;202.02;78.97;;;6.30;99.90;;;;;;5073632;28;20358;-94
2020/12/29 18:41:51;;;;;;;160.25;66.20;;;6.20;99.90;;;;;;5073791;28;20032;-94
2020/12/29 18:44:18;;;;;;;153.98;59.70;;;6.20;99.90;;;;;;5073446;28;20050;-94
2020/12/29 18:46:45;;;;;;;149.25;57.40;;;6.20;99.90;;;;;;5072984;28;20028;-94
2020/12/29 18:49:11;;;;;;;147.88;59.90;;;6.20;99.90;;;;;;5076960;28;20028;-94
2020/12/29 18:51:37;;;;;;;153.73;65.32;;;6.20;99.90;;;;;;5074720;28;20489;-94
2020/12/29 18:54:03;;;;;;;189.40;70.53;;;6.30;99.90;;;;;;5073300;28;20133;-93
2020/12/29 18:56:30;;;;;;;204.95;80.85;;;6.30;99.90;;;;;;5072914;28;20384;-95
2020/12/29 18:58:56;;;;;;;200.80;75.03;;;6.40;99.90;;;;;;5073196;28;20017;-96
2020/12/29 19:01:30;;;;;;;189.27;70.93;;;6.40;99.90;;;;;;5072806;28;20047;-94
2020/12/29 19:03:56;;;;;;;176.75;73.35;;;6.50;99.90;;;;;;5072322;28;20025;-94
2020/12/29 19:06:23;;;;;;;196.45;75.93;;;6.40;99.90;;;;;;5072688;28;20060;-94
2020/12/29 19:08:50;;;;;;;177.85;70.60;;;6.50;99.90;;;;;;5073129;28;20028;-95
2020/12/29 19:11:23;;;;;;;191.25;73.90;;;6.50;99.90;;;;;;5072842;28;20042;-93
2020/12/29 19:13:49;;;;;;;183.88;72.95;;;6.50;99.90;;;;;;5072681;28;20025;-94
2020/12/29 19:16:19;;;;;;;177.38;64.70;;;6.50;99.90;;;;;;5072710;28;20095;-95
2020/12/29 19:18:45;;;;;;;204.55;70.40;;;6.50;99.90;;;;;;5073052;28;20503;-96
2020/12/29 19:21:11;;;;;;;222.07;79.53;;;6.50;99.90;;;;;;5072702;28;20151;-95
2020/12/29 19:23:41;;;;;;;295.95;95.70;;;6.60;99.90;;;;;;5072889;28;20082;-93
2020/12/29 19:26:07;;;;;;;241.68;82.15;;;6.60;99.90;;;;;;5072497;28;20025;-95
2020/12/29 19:28:36;;;;;;;233.93;79.68;;;6.60;99.90;;;;;;5072704;28;20039;-95
2020/12/29 19:31:02;;;;;;;209.80;73.65;;;6.60;99.90;;;;;;5072819;28;20427;-95
2020/12/29 19:33:28;;;;;;;184.25;68.43;;;6.60;99.90;;;;;;5072200;28;20055;-96
2020/12/29 19:35:53;;;;;;;201.45;74.20;;;6.60;99.90;;;;;;5072112;28;20060;-96
2020/12/29 19:38:19;;;;;;;204.95;80.45;;;6.60;99.90;;;;;;5072363;28;20020;-94
2020/12/29 19:40:45;;;;;;;182.77;73.95;;;6.70;99.90;;;;;;5073731;28;20078;-94
2020/12/29 19:43:11;;;;;;;199.25;91.18;;;6.70;99.90;;;;;;5072281;28;20489;-95
2020/12/29 22:02:17;;;;;;;77.63;42.03;;;6.30;99.90;;;;;;5041054;28;20413;-93
2020/12/29 22:04:42;;;;;;;77.22;44.47;;;6.20;99.90;;;;;;5031023;28;20421;-94
